Time;durP1;ratioP1;P1;durP2;ratioP2;P2;SDS_P1;SDS_P2;PMS_P1;PMS_P2;Temp;Humidity;BMP_temperature;BMP_pressure;BME280_temperature;BME280_humidity;BME280_pressure;Samples;Min_cycle;Max_cycle;Signal;HPM_P1;HPM_P2
2022/05/02 00:01:19;;;;;;;16.43;8.23;;;8.60;99.90;;;;;;5053679;28;20180;-55
2022/05/02 00:03:45;;;;;;;12.00;7.20;;;8.60;99.90;;;;;;5053881;28;20184;-56
2022/05/02 00:06:11;;;;;;;16.83;6.40;;;8.50;99.90;;;;;;5053938;28;20576;-56
2022/05/02 00:08:36;;;;;;;11.07;6.40;;;8.60;99.90;;;;;;5054394;28;20184;-55
2022/05/02 00:11:02;;;;;;;10.83;5.40;;;8.60;99.90;;;;;;5053810;28;20184;-54
2022/05/02 00:13:28;;;;;;;7.67;5.07;;;8.60;99.90;;;;;;5053652;28;20270;-55
2022/05/02 00:15:54;;;;;;;10.17;6.03;;;8.60;99.90;;;;;;5053915;28;20188;-55
2022/05/02 00:18:20;;;;;;;9.07;5.47;;;8.70;99.90;;;;;;5053052;28;20714;-54
2022/05/02 00:20:46;;;;;;;10.33;5.40;;;8.70;99.90;;;;;;5053861;28;20254;-55
2022/05/02 00:23:12;;;;;;;7.60;5.33;;;8.70;99.90;;;;;;5053225;28;20235;-53
2022/05/02 00:25:38;;;;;;;9.93;4.77;;;8.70;99.90;;;;;;5053520;28;20331;-54
2022/05/02 00:28:05;;;;;;;8.37;4.83;;;8.70;99.90;;;;;;5053507;28;20190;-54
2022/05/02 00:30:31;;;;;;;8.17;5.10;;;8.70;99.90;;;;;;5052078;28;20548;-55
2022/05/02 00:32:58;;;;;;;7.33;4.50;;;8.60;99.90;;;;;;5053302;28;20180;-54
2022/05/02 00:35:24;;;;;;;10.37;4.50;;;8.60;99.90;;;;;;5053274;28;20180;-57
2022/05/02 00:37:50;;;;;;;9.30;4.57;;;8.60;99.90;;;;;;5053206;28;20292;-55
2022/05/02 00:40:17;;;;;;;7.73;5.03;;;8.50;99.90;;;;;;5053118;28;20652;-55
2022/05/02 00:42:45;;;;;;;8.23;4.83;;;8.50;99.90;;;;;;5053231;28;20191;-56
2022/05/02 00:45:13;;;;;;;11.27;5.13;;;8.50;99.90;;;;;;5053197;28;20291;-55
2022/05/02 00:47:39;;;;;;;8.63;5.10;;;8.40;99.90;;;;;;5053070;28;20262;-58
2022/05/02 00:50:10;;;;;;;15.10;5.53;;;8.30;99.90;;;;;;5053185;28;20185;-56
2022/05/02 00:52:36;;;;;;;7.17;5.17;;;8.30;99.90;;;;;;5053042;28;20192;-54
2022/05/02 00:55:04;;;;;;;6.73;4.77;;;8.30;99.90;;;;;;5053202;28;20186;-54
2022/05/02 00:57:31;;;;;;;11.57;5.13;;;8.30;99.90;;;;;;5052500;28;20709;-53
2022/05/02 00:59:57;;;;;;;8.73;4.77;;;8.20;99.90;;;;;;5051660;28;20180;-54
2022/05/02 01:02:23;;;;;;;8.90;5.23;;;8.20;99.90;;;;;;5052639;28;20244;-56
2022/05/02 01:04:48;;;;;;;10.77;6.17;;;8.10;99.90;;;;;;5053064;28;20672;-54
2022/05/02 01:07:20;;;;;;;11.27;5.77;;;8.00;99.90;;;;;;5052825;28;20634;-55
2022/05/02 01:09:51;;;;;;;8.03;5.00;;;7.90;99.90;;;;;;5052764;28;20293;-55
2022/05/02 01:12:22;;;;;;;7.50;5.30;;;7.80;99.90;;;;;;5052415;28;20174;-56
2022/05/02 01:14:51;;;;;;;11.37;5.33;;;7.80;99.90;;;;;;5052997;28;20179;-57
2022/05/02 01:17:17;;;;;;;8.63;5.97;;;7.80;99.90;;;;;;5052370;28;20208;-54
2022/05/02 01:19:43;;;;;;;10.00;5.73;;;7.80;99.90;;;;;;5052463;28;20574;-55
2022/05/02 01:22:09;;;;;;;11.53;5.70;;;7.70;99.90;;;;;;5050941;28;20325;-60
2022/05/02 01:24:43;;;;;;;10.70;6.53;;;7.70;99.90;;;;;;5052603;28;20262;-54
2022/05/02 01:27:10;;;;;;;10.20;6.57;;;7.70;99.90;;;;;;5052078;28;20207;-61
2022/05/02 01:29:39;;;;;;;9.90;6.63;;;7.70;99.90;;;;;;5052440;28;20186;-56
2022/05/02 01:32:06;;;;;;;13.20;7.13;;;7.60;99.90;;;;;;5052334;28;20512;-57
2022/05/02 01:34:33;;;;;;;11.77;5.97;;;7.60;99.90;;;;;;5052145;28;20244;-57
2022/05/02 01:37:03;;;;;;;10.50;5.57;;;7.60;99.90;;;;;;5052362;28;20644;-58
2022/05/02 01:39:30;;;;;;;12.03;7.27;;;7.60;99.90;;;;;;5051912;28;20997;-56
2022/05/02 01:42:00;;;;;;;13.17;7.43;;;7.60;99.90;;;;;;5052358;28;20182;-56
2022/05/02 01:44:25;;;;;;;16.10;8.83;;;7.60;99.90;;;;;;5052163;28;20182;-56
2022/05/02 01:46:52;;;;;;;11.90;7.63;;;7.60;99.90;;;;;;5052153;28;20662;-55
2022/05/02 01:49:18;;;;;;;15.53;7.77;;;7.60;99.90;;;;;;5051107;28;20174;-56
2022/05/02 01:51:43;;;;;;;13.10;7.80;;;7.50;99.90;;;;;;5051988;28;20335;-56
2022/05/02 01:54:09;;;;;;;19.23;7.53;;;7.50;99.90;;;;;;5051951;28;20186;-58
2022/05/02 01:56:35;;;;;;;15.07;7.77;;;7.50;99.90;;;;;;5051669;28;20683;-55
2022/05/02 01:59:01;;;;;;;27.97;10.47;;;7.40;99.90;;;;;;5052030;28;20224;-56
2022/05/02 02:01:27;;;;;;;16.27;9.97;;;7.40;99.90;;;;;;5051514;28;20191;-54
2022/05/02 02:03:53;;;;;;;16.00;8.97;;;7.40;99.90;;;;;;5051521;28;20179;-56
2022/05/02 02:06:19;;;;;;;17.60;9.53;;;7.30;99.90;;;;;;5051189;28;20204;-53
2022/05/02 02:08:44;;;;;;;18.97;8.97;;;7.30;99.90;;;;;;5050252;28;20236;-54
2022/05/02 02:11:11;;;;;;;15.43;9.37;;;7.30;99.90;;;;;;5051719;28;20196;-53
2022/05/02 02:13:38;;;;;;;17.47;9.50;;;7.20;99.90;;;;;;5051632;28;20190;-55
2022/05/02 02:16:09;;;;;;;19.50;9.53;;;7.10;99.90;;;;;;5051445;28;20194;-53
2022/05/02 02:18:39;;;;;;;27.73;10.57;;;7.10;99.90;;;;;;5051086;28;20247;-54
2022/05/02 02:21:07;;;;;;;18.60;9.10;;;7.10;99.90;;;;;;5050805;28;20236;-55
2022/05/02 02:23:33;;;;;;;24.20;10.57;;;7.10;99.90;;;;;;5051356;28;20197;-56
2022/05/02 02:25:59;;;;;;;12.13;8.70;;;7.00;99.90;;;;;;5051550;28;20182;-56
2022/05/02 02:28:25;;;;;;;14.23;9.47;;;7.10;99.90;;;;;;5051053;28;20182;-56
2022/05/02 02:30:51;;;;;;;20.53;9.87;;;7.10;99.90;;;;;;5051549;28;20231;-55
2022/05/02 02:33:17;;;;;;;25.17;10.90;;;7.00;99.90;;;;;;5051007;28;20269;-55
2022/05/02 02:35:43;;;;;;;19.83;10.50;;;7.00;99.90;;;;;;5050879;28;20278;-55
2022/05/02 02:38:15;;;;;;;18.30;10.00;;;7.00;99.90;;;;;;5051348;28;20675;-55
2022/05/02 02:40:41;;;;;;;25.23;11.20;;;6.90;99.90;;;;;;5051264;28;20182;-55
2022/05/02 02:43:09;;;;;;;30.03;11.87;;;6.80;99.90;;;;;;5049948;28;20206;-57
2022/05/02 02:45:35;;;;;;;20.90;11.30;;;6.90;99.90;;;;;;5050986;28;20178;-55
2022/05/02 02:48:01;;;;;;;26.73;14.00;;;6.90;99.90;;;;;;5051167;28;20206;-55
2022/05/02 02:50:26;;;;;;;33.80;11.97;;;6.90;99.90;;;;;;5050371;28;20252;-58
2022/05/02 02:52:52;;;;;;;24.17;11.80;;;6.90;99.90;;;;;;5051254;28;20209;-53
2022/05/02 02:55:18;;;;;;;23.00;12.03;;;7.00;99.90;;;;;;5050972;28;20605;-54
2022/05/02 02:57:43;;;;;;;23.67;12.43;;;7.00;99.90;;;;;;5050967;28;20351;-52
2022/05/02 03:00:10;;;;;;;20.87;11.50;;;7.10;99.90;;;;;;5051386;28;20175;-56
2022/05/02 03:02:42;;;;;;;25.10;12.13;;;7.10;99.90;;;;;;5053322;28;20186;-53
2022/05/02 03:07:53;;;;;;;26.23;10.57;;;7.10;99.90;;;;;;5055141;28;20631;-55
2022/05/02 03:10:18;;;;;;;19.03;11.00;;;7.10;99.90;;;;;;5054610;28;20211;-55
2022/05/02 03:12:45;;;;;;;31.77;11.87;;;7.10;99.90;;;;;;5054872;28;20192;-54
2022/05/02 03:15:11;;;;;;;25.50;10.97;;;7.00;99.90;;;;;;5053516;28;20546;-54
2022/05/02 03:17:36;;;;;;;20.70;11.83;;;7.00;99.90;;;;;;5054113;28;20221;-54
2022/05/02 03:20:03;;;;;;;87.23;15.50;;;6.90;99.90;;;;;;5053471;28;20557;-56
2022/05/02 03:22:29;;;;;;;22.80;11.13;;;6.90;99.90;;;;;;5054210;28;20303;-55
2022/05/02 03:24:54;;;;;;;18.80;11.07;;;6.90;99.90;;;;;;5053457;28;20216;-54
2022/05/02 03:27:20;;;;;;;28.60;11.90;;;6.80;99.90;;;;;;5054269;28;20185;-56
2022/05/02 03:29:46;;;;;;;30.63;12.03;;;6.90;99.90;;;;;;5054294;28;20177;-52
2022/05/02 03:32:11;;;;;;;21.70;11.97;;;6.90;99.90;;;;;;5054208;28;20185;-54
2022/05/02 03:34:37;;;;;;;24.37;12.70;;;6.90;99.90;;;;;;5053984;28;20178;-54
2022/05/02 03:37:03;;;;;;;18.90;10.67;;;6.90;99.90;;;;;;5054215;28;20267;-56
2022/05/02 03:39:29;;;;;;;23.27;12.83;;;7.00;99.90;;;;;;5053734;28;20526;-52
2022/05/02 03:41:55;;;;;;;32.90;12.53;;;7.00;99.90;;;;;;5053916;28;20182;-50
2022/05/02 03:44:20;;;;;;;28.10;12.00;;;7.10;99.90;;;;;;5053775;28;20587;-53
2022/05/02 03:46:46;;;;;;;25.10;11.63;;;7.10;99.90;;;;;;5053823;28;20525;-55
2022/05/02 03:49:12;;;;;;;17.97;11.07;;;7.10;99.90;;;;;;5054217;28;20247;-55
2022/05/02 03:51:38;;;;;;;26.93;12.23;;;7.10;99.90;;;;;;5053647;28;20252;-54
2022/05/02 03:54:04;;;;;;;30.87;11.80;;;7.10;99.90;;;;;;5054150;28;20186;-56
2022/05/02 03:56:30;;;;;;;42.40;16.07;;;7.10;99.90;;;;;;5053552;28;20592;-55
2022/05/02 03:58:56;;;;;;;29.33;11.90;;;7.20;99.90;;;;;;5053470;28;20183;-55
2022/05/02 04:01:23;;;;;;;22.63;10.87;;;7.30;99.90;;;;;;5053508;28;20681;-52
2022/05/02 04:03:49;;;;;;;24.23;10.30;;;7.40;99.90;;;;;;5053819;28;20227;-55
2022/05/02 04:06:15;;;;;;;18.47;10.43;;;7.50;99.90;;;;;;5053773;28;20182;-54
2022/05/02 04:08:41;;;;;;;36.93;11.17;;;7.50;99.90;;;;;;5053443;28;20185;-50
2022/05/02 04:11:07;;;;;;;17.90;9.50;;;7.50;99.90;;;;;;5053301;28;20174;-55
2022/05/02 04:13:33;;;;;;;25.60;10.43;;;7.50;99.90;;;;;;5053024;28;20187;-55
2022/05/02 04:15:58;;;;;;;20.20;10.23;;;7.60;99.90;;;;;;5052845;28;20183;-57
2022/05/02 04:18:24;;;;;;;40.43;12.23;;;7.60;99.90;;;;;;5052715;28;20701;-56
2022/05/02 04:20:50;;;;;;;15.47;9.67;;;7.70;99.90;;;;;;5053020;28;20261;-56
2022/05/02 04:23:16;;;;;;;27.70;11.03;;;7.70;99.90;;;;;;5053121;28;20672;-55
2022/05/02 04:25:41;;;;;;;25.53;9.77;;;7.70;99.90;;;;;;5052563;28;20280;-55
2022/05/02 04:28:08;;;;;;;33.93;9.80;;;7.80;99.90;;;;;;5052668;28;20186;-54
2022/05/02 04:30:34;;;;;;;25.37;11.13;;;7.80;99.90;;;;;;5052023;28;20612;-54
2022/05/02 04:33:01;;;;;;;27.23;10.30;;;7.90;99.90;;;;;;5052805;28;20178;-57
2022/05/02 04:35:27;;;;;;;49.03;12.20;;;8.00;99.90;;;;;;5051977;28;20237;-55
2022/05/02 04:37:53;;;;;;;19.07;10.40;;;8.00;99.90;;;;;;5052054;28;20222;-57
2022/05/02 04:40:19;;;;;;;42.03;11.47;;;8.20;99.90;;;;;;5051680;28;20547;-60
2022/05/02 04:42:44;;;;;;;50.37;12.53;;;8.30;99.90;;;;;;5051707;28;20540;-56
2022/05/02 04:45:10;;;;;;;21.57;9.80;;;8.40;99.90;;;;;;5051832;28;20209;-54
2022/05/02 04:47:36;;;;;;;20.07;10.27;;;8.50;99.90;;;;;;5052102;28;20183;-54
2022/05/02 04:50:03;;;;;;;30.30;10.87;;;8.60;99.90;;;;;;5051420;28;20194;-56
2022/05/02 04:52:29;;;;;;;24.17;9.37;;;8.80;99.90;;;;;;5051423;28;20244;-57
2022/05/02 04:54:54;;;;;;;14.47;9.30;;;8.90;99.90;;;;;;5051873;28;20198;-56
2022/05/02 04:57:20;;;;;;;19.73;9.77;;;9.00;99.90;;;;;;5051479;28;20232;-60
2022/05/02 04:59:46;;;;;;;74.80;14.17;;;9.10;99.90;;;;;;5051658;28;20191;-56
2022/05/02 05:02:12;;;;;;;33.60;11.00;;;9.20;99.90;;;;;;5051888;28;20226;-59
2022/05/02 05:04:37;;;;;;;33.00;10.40;;;9.40;99.90;;;;;;5051291;28;20189;-56
2022/05/02 05:07:04;;;;;;;18.50;8.90;;;9.50;99.90;;;;;;5051494;28;20598;-56
2022/05/02 05:09:30;;;;;;;24.23;8.83;;;9.60;99.90;;;;;;5051147;28;20182;-57
2022/05/02 05:12:34;;;;;;;32.43;8.93;;;9.80;99.90;;;;;;5051908;28;20235;-54
2022/05/02 05:18:36;;;;;;;11.40;6.63;;;10.00;99.90;;;;;;5051366;28;20637;-57
2022/05/02 05:21:27;;;;;;;12.40;7.20;;;10.10;99.90;;;;;;5050100;28;20317;-64
2022/05/02 05:24:17;;;;;;;84.90;11.67;;;10.20;99.90;;;;;;5049280;28;20285;-57
2022/05/02 05:27:31;;;;;;;30.93;8.63;;;10.30;99.90;;;;;;5050727;28;20185;-58
2022/05/02 05:30:09;;;;;;;10.83;6.47;;;10.30;99.90;;;;;;5028674;28;20205;-55
2022/05/02 05:32:45;;;;;;;20.03;7.37;;;10.50;99.90;;;;;;5030788;28;20213;-60
2022/05/02 05:35:14;;;;;;;24.97;7.77;;;10.50;99.90;;;;;;5037098;28;20573;-60
2022/05/02 05:37:55;;;;;;;18.70;7.00;;;10.60;99.90;;;;;;5050740;28;20219;-58
2022/05/02 05:40:36;;;;;;;14.90;7.00;;;10.70;99.90;;;;;;5050494;28;20191;-54
2022/05/02 05:43:07;;;;;;;33.83;8.33;;;10.80;99.90;;;;;;5051143;28;20206;-60
2022/05/02 05:45:58;;;;;;;17.87;7.33;;;10.90;99.90;;;;;;5038657;28;20242;-60
2022/05/02 05:48:53;;;;;;;11.77;5.77;;;11.10;99.90;;;;;;5048654;28;20200;-64
2022/05/02 05:51:52;;;;;;;18.60;6.00;;;11.10;99.90;;;;;;5048982;28;20228;-61
2022/05/02 05:54:29;;;;;;;19.33;7.07;;;11.20;99.90;;;;;;5041746;28;20560;-59
2022/05/02 05:57:23;;;;;;;18.67;8.37;;;11.40;99.90;;;;;;5036443;28;20216;-59
2022/05/02 05:59:58;;;;;;;14.47;6.13;;;11.60;99.90;;;;;;5040853;28;20379;-59
2022/05/02 06:02:29;;;;;;;13.67;7.00;;;11.80;99.90;;;;;;5044009;28;20197;-57
2022/05/02 06:04:58;;;;;;;15.13;6.73;;;11.80;99.90;;;;;;5047222;28;20185;-60
2022/05/02 06:07:28;;;;;;;14.93;6.50;;;11.90;99.90;;;;;;5049533;28;20229;-63
2022/05/02 06:09:56;;;;;;;15.80;8.27;;;12.00;99.90;;;;;;5049828;28;20193;-59
2022/05/02 06:12:24;;;;;;;15.23;6.60;;;12.20;99.90;;;;;;5048817;28;20281;-64
2022/05/02 06:20:24;;;;;;;15.50;7.03;;;12.50;99.90;;;;;;5046113;28;20209;-61
2022/05/02 06:22:51;;;;;;;25.83;8.07;;;12.60;99.90;;;;;;5045063;28;20703;-58
2022/05/02 06:25:20;;;;;;;21.97;9.30;;;12.70;99.90;;;;;;5029964;28;20193;-59
2022/05/02 06:27:48;;;;;;;22.50;11.33;;;12.90;99.90;;;;;;5044388;28;20320;-57
2022/05/02 06:30:15;;;;;;;17.13;8.57;;;13.10;99.90;;;;;;5049429;28;20733;-56
2022/05/02 06:32:43;;;;;;;18.10;9.57;;;13.30;99.90;;;;;;5048206;28;20284;-57
2022/05/02 06:35:09;;;;;;;21.47;9.00;;;13.50;99.90;;;;;;5051673;28;20256;-57
2022/05/02 06:37:55;;;;;;;26.53;9.63;;;13.60;99.90;;;;;;5039279;28;20242;-58
2022/05/02 06:40:33;;;;;;;20.97;9.30;;;13.70;99.90;;;;;;5044464;28;20190;-57
2022/05/02 06:43:26;;;;;;;19.03;9.23;;;13.80;99.90;;;;;;5054148;28;20182;-59
2022/05/02 06:46:02;;;;;;;27.07;10.23;;;13.90;99.90;;;;;;5053548;28;20227;-55
2022/05/02 06:48:52;;;;;;;29.43;10.00;;;14.10;99.90;;;;;;5054368;28;20197;-61
2022/05/02 06:51:30;;;;;;;18.27;9.63;;;14.20;99.90;;;;;;5051115;28;20285;-59
2022/05/02 06:54:02;;;;;;;23.77;9.90;;;14.20;99.90;;;;;;5044689;28;20190;-59
2022/05/02 06:56:35;;;;;;;36.47;11.57;;;14.20;99.90;;;;;;5049686;28;20222;-60
2022/05/02 06:59:46;;;;;;;15.67;8.10;;;14.20;99.90;;;;;;5053873;28;20190;-62
2022/05/02 07:02:32;;;;;;;23.33;9.37;;;14.20;99.90;;;;;;4975993;28;20196;-61
2022/05/02 07:05:05;;;;;;;15.37;8.20;;;14.20;99.90;;;;;;5032740;28;20341;-61
2022/05/02 07:07:42;;;;;;;16.53;8.70;;;14.30;99.90;;;;;;5048682;28;20685;-60
2022/05/02 07:10:13;;;;;;;28.27;10.13;;;14.40;99.90;;;;;;5042806;28;20183;-59
2022/05/02 07:13:04;;;;;;;23.97;8.97;;;14.50;99.90;;;;;;5051356;28;20667;-62
2022/05/02 07:15:48;;;;;;;26.20;9.23;;;14.60;99.90;;;;;;5039445;28;20194;-60
2022/05/02 07:18:51;;;;;;;28.90;9.40;;;14.70;99.90;;;;;;5045833;28;20621;-59
2022/05/02 07:21:29;;;;;;;11.97;7.50;;;14.70;99.90;;;;;;5052907;28;20571;-61
2022/05/02 07:24:14;;;;;;;14.87;8.10;;;14.80;99.90;;;;;;5052468;28;20182;-62
2022/05/02 07:26:45;;;;;;;29.90;13.27;;;14.80;99.90;;;;;;5053569;28;20268;-64
2022/05/02 07:29:13;;;;;;;13.67;8.40;;;14.90;99.90;;;;;;5054462;28;20181;-64
2022/05/02 07:31:39;;;;;;;23.03;8.10;;;15.10;99.90;;;;;;5053351;28;20674;-60
2022/05/02 07:34:06;;;;;;;22.00;8.03;;;15.20;99.90;;;;;;5052334;28;20283;-62
2022/05/02 07:36:35;;;;;;;27.07;8.97;;;15.30;99.90;;;;;;5051608;28;20300;-62
2022/05/02 07:39:08;;;;;;;32.10;8.20;;;15.50;99.90;;;;;;5053412;28;20641;-65
2022/05/02 07:41:35;;;;;;;16.83;7.80;;;15.70;99.80;;;;;;5052244;28;20174;-62
2022/05/02 07:44:06;;;;;;;25.57;8.17;;;15.80;99.70;;;;;;5050569;28;20182;-60
2022/05/02 07:46:44;;;;;;;17.47;7.03;;;16.00;99.70;;;;;;5050747;28;20182;-60
2022/05/02 07:49:13;;;;;;;19.07;8.20;;;16.10;99.10;;;;;;5064095;28;20186;-58
2022/05/02 07:51:49;;;;;;;9.43;6.60;;;16.20;99.20;;;;;;5043631;28;20220;-63
2022/05/02 07:54:18;;;;;;;13.13;6.63;;;16.40;99.20;;;;;;5045225;28;20642;-59
2022/05/02 07:56:47;;;;;;;14.33;5.73;;;16.50;98.40;;;;;;5051823;28;20237;-61
2022/05/02 07:59:23;;;;;;;14.87;5.57;;;16.60;97.70;;;;;;5051606;28;20544;-57
2022/05/02 08:01:49;;;;;;;23.10;6.03;;;16.80;97.40;;;;;;5051425;28;20232;-59
2022/05/02 08:04:15;;;;;;;14.77;6.40;;;17.00;97.20;;;;;;5052835;28;20579;-54
2022/05/02 08:06:49;;;;;;;24.73;6.47;;;17.10;97.10;;;;;;5052024;28;20250;-54
2022/05/02 08:09:24;;;;;;;14.73;5.63;;;17.30;96.40;;;;;;5052815;28;20260;-55
2022/05/02 08:11:55;;;;;;;13.67;5.70;;;17.50;95.40;;;;;;5052446;28;20606;-55
2022/05/02 08:14:36;;;;;;;14.47;6.03;;;17.70;94.90;;;;;;5053169;28;20181;-61
2022/05/02 08:17:07;;;;;;;14.57;5.57;;;17.70;94.10;;;;;;5053111;28;20247;-62
2022/05/02 08:19:51;;;;;;;15.00;5.97;;;17.80;93.20;;;;;;5052433;28;20175;-61
2022/05/02 08:28:32;;;;;;;9.90;4.80;;;18.30;93.10;;;;;;5052491;28;20197;-58
2022/05/02 08:31:30;;;;;;;16.87;5.87;;;18.40;91.80;;;;;;5032570;28;20243;-55
2022/05/02 08:34:18;;;;;;;21.73;5.70;;;18.40;91.60;;;;;;5032439;28;20179;-59
2022/05/02 08:36:47;;;;;;;14.98;4.50;;;18.60;91.10;;;;;;5031778;28;20210;-63
2022/05/02 08:39:18;;;;;;;11.67;4.20;;;18.70;91.20;;;;;;5032481;28;20657;-60
2022/05/02 08:42:11;;;;;;;17.37;5.47;;;18.70;90.90;;;;;;5032091;28;20567;-60
2022/05/02 08:45:14;;;;;;;15.07;4.87;;;18.80;91.40;;;;;;5031688;28;20185;-55
2022/05/02 08:47:58;;;;;;;11.83;4.33;;;19.00;90.00;;;;;;5040086;28;20190;-57
2022/05/02 08:50:42;;;;;;;15.00;5.30;;;18.90;88.50;;;;;;5052049;28;20265;-55
2022/05/02 08:53:35;;;;;;;15.80;5.00;;;18.80;87.10;;;;;;5052025;28;20228;-60
2022/05/02 08:56:09;;;;;;;20.77;4.55;;;19.00;86.70;;;;;;5052313;28;20174;-61
2022/05/02 08:59:14;;;;;;;9.20;4.32;;;19.20;87.00;;;;;;5051615;28;20201;-63
2022/05/02 09:01:54;;;;;;;16.85;4.32;;;19.30;84.90;;;;;;5020091;28;20276;-54
2022/05/02 09:04:39;;;;;;;22.98;5.22;;;19.20;84.10;;;;;;5051954;28;20292;-56
2022/05/02 09:07:27;;;;;;;15.90;4.78;;;19.30;82.90;;;;;;5051871;28;20627;-60
2022/05/02 09:10:11;;;;;;;14.30;5.10;;;19.50;82.70;;;;;;5051396;28;20197;-64
2022/05/02 09:12:48;;;;;;;34.33;4.95;;;19.70;80.90;;;;;;5051086;28;20207;-60
2022/05/02 09:15:32;;;;;;;7.15;3.47;;;19.70;79.10;;;;;;5051508;28;20268;-61
2022/05/02 09:18:35;;;;;;;22.52;5.50;;;19.80;78.90;;;;;;5051273;28;20248;-61
2022/05/02 09:21:32;;;;;;;6.25;3.53;;;19.60;79.00;;;;;;5050581;28;20659;-60
2022/05/02 09:24:22;;;;;;;15.50;3.83;;;19.80;76.10;;;;;;5030995;28;20338;-55
2022/05/02 09:27:14;;;;;;;8.20;3.67;;;20.00;73.80;;;;;;5029721;28;20286;-50
2022/05/02 09:29:42;;;;;;;23.65;5.72;;;19.90;72.30;;;;;;5042245;28;20179;-56
2022/05/02 09:32:18;;;;;;;13.63;3.85;;;20.10;72.90;;;;;;5051590;28;20179;-56
2022/05/02 09:34:58;;;;;;;7.50;3.58;;;20.30;71.70;;;;;;5050897;28;20208;-56
2022/05/02 09:37:54;;;;;;;8.48;3.60;;;20.40;66.60;;;;;;5051809;28;20272;-58
2022/05/02 09:40:29;;;;;;;6.93;3.28;;;20.50;67.60;;;;;;5051324;28;20713;-50
2022/05/02 09:43:14;;;;;;;10.93;4.55;;;20.30;70.70;;;;;;5051560;28;20205;-58
2022/05/02 09:51:39;;;;;;;14.55;4.30;;;20.20;70.00;;;;;;5050511;28;20277;-68
2022/05/02 09:57:31;;;;;;;45.70;5.65;;;20.60;69.30;;;;;;5050478;28;20217;-56
2022/05/02 10:02:50;;;;;;;21.02;5.15;;;20.70;66.90;;;;;;5050658;28;20192;-64
2022/05/02 10:05:46;;;;;;;19.55;5.25;;;20.70;67.40;;;;;;5050422;28;20189;-58
2022/05/02 10:08:37;;;;;;;33.75;7.07;;;20.70;65.80;;;;;;5049840;28;20265;-55
2022/05/02 10:11:11;;;;;;;8.95;3.10;;;20.70;66.50;;;;;;5050032;28;20265;-57
2022/05/02 10:14:05;;;;;;;12.77;3.92;;;20.80;65.30;;;;;;5050388;28;20182;-60
2022/05/02 10:16:57;;;;;;;9.43;3.40;;;20.80;65.40;;;;;;5050506;28;20192;-61
2022/05/02 10:20:08;;;;;;;18.95;4.78;;;20.80;64.40;;;;;;5049901;28;20221;-60
2022/05/02 10:23:12;;;;;;;8.77;3.25;;;20.70;65.00;;;;;;5039369;28;20249;-63
2022/05/02 10:25:41;;;;;;;12.00;3.50;;;20.60;64.50;;;;;;5050332;28;20191;-58
2022/05/02 10:28:44;;;;;;;12.45;3.65;;;20.70;63.60;;;;;;5050148;28;20182;-53
2022/05/02 10:31:27;;;;;;;15.75;3.65;;;20.80;61.70;;;;;;5030136;28;20245;-57
2022/05/02 10:33:54;;;;;;;11.30;3.75;;;20.70;62.20;;;;;;5029860;28;20229;-55
2022/05/02 10:36:23;;;;;;;39.35;5.13;;;20.70;63.00;;;;;;5029532;28;20175;-56
2022/05/02 10:39:03;;;;;;;8.40;2.78;;;21.00;61.30;;;;;;5030193;28;20278;-56
2022/05/02 10:41:48;;;;;;;13.05;3.72;;;21.40;60.90;;;;;;5028642;28;20187;-58
2022/05/02 10:44:18;;;;;;;16.88;3.80;;;21.60;60.00;;;;;;5030560;28;20185;-57
2022/05/02 10:46:45;;;;;;;36.80;6.07;;;21.40;59.30;;;;;;5030695;28;20198;-60
2022/05/02 10:49:25;;;;;;;11.43;3.80;;;21.40;58.40;;;;;;5032030;28;20197;-56
2022/05/02 10:52:25;;;;;;;10.07;2.80;;;21.40;59.40;;;;;;5049819;28;20221;-53
2022/05/02 10:55:02;;;;;;;14.07;5.60;;;21.30;58.90;;;;;;5048447;28;20386;-56
2022/05/02 10:57:34;;;;;;;7.32;3.60;;;21.50;58.80;;;;;;5049864;28;20210;-59
2022/05/02 11:00:06;;;;;;;16.58;3.53;;;22.00;58.10;;;;;;5049979;28;20206;-62
2022/05/02 11:02:58;;;;;;;20.88;5.22;;;22.10;57.70;;;;;;5050235;28;20648;-55
2022/05/02 11:06:07;;;;;;;5.38;2.95;;;22.30;57.70;;;;;;5049250;28;20197;-57
2022/05/02 11:08:44;;;;;;;11.40;5.72;;;22.50;56.30;;;;;;5019621;28;20335;-57
2022/05/02 11:11:21;;;;;;;7.78;3.00;;;22.80;56.60;;;;;;5049822;28;20170;-57
2022/05/02 11:13:57;;;;;;;7.10;3.67;;;23.10;56.30;;;;;;5048284;28;20581;-59
2022/05/02 11:16:35;;;;;;;8.38;3.20;;;22.90;56.40;;;;;;5050426;28;20179;-59
2022/05/02 11:22:40;;;;;;;19.23;4.75;;;23.50;53.80;;;;;;5050447;28;20652;-59
2022/05/02 11:25:20;;;;;;;9.95;2.75;;;24.00;53.00;;;;;;5053247;28;20178;-58
2022/05/02 11:28:04;;;;;;;8.52;3.08;;;25.00;51.80;;;;;;5053070;28;20204;-60
2022/05/02 11:30:41;;;;;;;25.65;4.80;;;26.10;49.20;;;;;;5053021;28;20254;-59
2022/05/02 11:33:13;;;;;;;19.42;3.78;;;27.20;47.20;;;;;;5053362;28;20219;-57
2022/05/02 11:35:46;;;;;;;9.45;3.50;;;27.70;45.50;;;;;;5052203;28;20179;-62
2022/05/02 11:39:03;;;;;;;8.15;2.72;;;28.00;44.30;;;;;;5052946;28;20225;-57
2022/05/02 11:41:29;;;;;;;20.65;5.60;;;27.90;42.80;;;;;;5018795;28;20190;-57
2022/05/02 11:44:11;;;;;;;18.50;4.40;;;28.20;43.80;;;;;;5053599;28;20185;-56
2022/05/02 11:46:51;;;;;;;6.35;2.97;;;28.50;41.70;;;;;;5052093;28;20194;-60
2022/05/02 11:49:23;;;;;;;6.43;2.92;;;29.20;41.60;;;;;;5048863;28;20272;-59
2022/05/02 11:51:51;;;;;;;10.15;3.13;;;29.60;39.40;;;;;;5046760;28;20206;-63
2022/05/02 11:54:39;;;;;;;9.02;3.28;;;29.90;39.50;;;;;;5035551;28;20203;-61
2022/05/02 11:57:27;;;;;;;5.72;3.05;;;30.40;37.80;;;;;;5045154;28;20295;-61
2022/05/02 12:00:09;;;;;;;10.82;2.92;;;30.50;38.30;;;;;;5049942;28;20280;-60
2022/05/02 12:02:38;;;;;;;5.88;2.53;;;30.70;37.20;;;;;;5050629;28;20181;-69
2022/05/02 12:05:23;;;;;;;6.60;2.70;;;30.40;37.10;;;;;;5052792;28;20285;-62
2022/05/02 12:08:00;;;;;;;14.75;4.30;;;29.30;37.90;;;;;;5052134;28;20597;-61
2022/05/02 12:10:39;;;;;;;11.38;4.70;;;27.90;39.50;;;;;;5052600;28;20273;-61
2022/05/02 12:13:10;;;;;;;9.95;4.20;;;27.70;39.90;;;;;;5052499;28;20612;-60
2022/05/02 12:15:53;;;;;;;11.98;4.20;;;28.50;38.70;;;;;;5052068;28;20185;-60
2022/05/02 12:18:19;;;;;;;6.72;3.10;;;30.10;37.40;;;;;;5052277;28;20210;-68
2022/05/02 12:20:54;;;;;;;9.85;3.08;;;31.10;35.90;;;;;;5051077;28;20276;-59
2022/05/02 12:23:23;;;;;;;10.70;4.10;;;31.60;36.10;;;;;;5052634;28;20186;-58
2022/05/02 12:25:53;;;;;;;9.25;3.85;;;31.70;35.10;;;;;;5051700;28;20178;-60
2022/05/02 12:28:36;;;;;;;4.72;2.67;;;33.20;33.90;;;;;;5052052;28;20661;-61
2022/05/02 12:31:03;;;;;;;6.85;3.65;;;33.30;33.00;;;;;;5053984;28;20261;-59
2022/05/02 12:33:31;;;;;;;8.73;3.65;;;32.70;33.70;;;;;;5051104;28;20409;-61
2022/05/02 12:35:59;;;;;;;8.93;3.95;;;33.60;32.40;;;;;;5050807;28;20398;-62
2022/05/02 12:38:28;;;;;;;9.45;3.90;;;33.70;32.00;;;;;;5052242;28;20234;-58
2022/05/02 12:41:01;;;;;;;11.52;4.38;;;34.40;32.20;;;;;;5051740;28;20344;-62
2022/05/02 12:43:44;;;;;;;12.93;3.72;;;34.10;31.60;;;;;;5051709;28;20193;-56
2022/05/02 12:46:11;;;;;;;18.38;4.68;;;33.80;31.00;;;;;;5050595;28;20182;-59
2022/05/02 12:48:39;;;;;;;18.73;4.40;;;34.50;31.20;;;;;;5048930;28;20186;-60
2022/05/02 12:51:18;;;;;;;28.10;5.20;;;34.60;29.80;;;;;;5050980;28;20543;-62
2022/05/02 12:56:28;;;;;;;8.63;3.72;;;36.60;29.30;;;;;;5050527;28;20210;-61
2022/05/02 13:01:46;;;;;;;14.75;4.65;;;35.70;28.40;;;;;;5050636;28;20198;-59
2022/05/02 13:04:22;;;;;;;19.50;4.43;;;33.00;29.60;;;;;;5050002;28;20190;-58
2022/05/02 13:06:49;;;;;;;14.43;4.25;;;31.40;32.20;;;;;;5050301;28;20193;-60
2022/05/02 13:09:19;;;;;;;14.93;3.90;;;31.30;33.50;;;;;;5049674;28;20195;-61
2022/05/02 13:11:46;;;;;;;9.05;3.38;;;31.90;31.40;;;;;;5049486;28;20620;-62
2022/05/02 13:14:23;;;;;;;14.63;4.03;;;32.20;30.40;;;;;;5048533;28;20171;-62
2022/05/02 13:16:49;;;;;;;27.08;7.07;;;30.90;30.80;;;;;;5049573;28;20241;-59
2022/05/02 13:19:16;;;;;;;7.53;3.38;;;28.90;33.90;;;;;;5044950;28;20720;-62
2022/05/02 13:21:43;;;;;;;7.63;3.75;;;27.70;35.30;;;;;;5048635;28;20237;-63
2022/05/02 13:24:12;;;;;;;7.07;3.60;;;26.20;36.10;;;;;;5047392;28;20200;-60
2022/05/02 13:27:08;;;;;;;14.32;4.40;;;24.70;37.90;;;;;;5048304;28;20273;-60
2022/05/02 13:30:03;;;;;;;7.57;3.28;;;25.50;37.70;;;;;;5048999;28;20190;-63
2022/05/02 13:32:44;;;;;;;9.07;3.92;;;28.00;35.90;;;;;;5049150;28;20188;-60
2022/05/02 13:35:10;;;;;;;10.63;3.50;;;30.80;33.00;;;;;;5046358;28;20192;-61
2022/05/02 13:37:43;;;;;;;32.63;5.07;;;32.60;30.00;;;;;;5048914;28;20202;-59
2022/05/02 13:40:11;;;;;;;67.38;7.72;;;33.30;29.30;;;;;;5049100;28;20537;-59
2022/05/02 13:42:57;;;;;;;19.17;4.68;;;34.30;29.70;;;;;;5049679;28;20289;-60
2022/05/02 13:45:54;;;;;;;6.50;3.83;;;34.10;28.70;;;;;;5048590;28;20671;-59
2022/05/02 13:48:34;;;;;;;15.68;3.83;;;32.90;29.40;;;;;;5049639;28;20232;-55
2022/05/02 13:51:07;;;;;;;12.13;4.15;;;34.20;29.30;;;;;;5049072;28;20202;-55
2022/05/02 13:53:43;;;;;;;14.75;4.25;;;34.50;28.10;;;;;;5050378;28;20295;-59